aviador You're here:

EGOV Decoded Metar

VALLEY in UK
Report Time2018-02-22 05:50:00
UTC Time2018-02-22 06:48:17
Flight Rules vfr VFR
Wind120° at 04 kt
W.Decomp.*RWY 13: 4.0 kt HW 0.5 kt LCW
RWY 19: 1.6 kt HW 3.7 kt LCW
W.Rank120° ranks 36
Current wind is below 120° avg. (5.9)
Visibility9999 m
Phenomena:N/A
Clouds:Broken 047 Hf
Expected CloudBase > 800 ft AGL from Temp-Dew spread
Ceiling4,700 ft
Temp02°C (ISA -13)
Dew Point00°C (87% RH)
AAT-1.4°C
QNH1024 hPa
Density Alt-1,827 ft
Elevation36 ft
Report Wrong Elevation
Raw Report
METAR EGOV 220550Z AUTO 12004KT 9999 BKN047/// 02/00 Q1024=

Extra information for EGOV:More info

Metar Taf Metar & Taf Last 4 Metars F.Rules Stats Wind Profile Meteogram Temp Stats Airport Information Weather charts Add Link Nearby VenuesMetar ALERT Operation Metar Decoded Social comments